sensor_id;sensor_type;location;lat;lon;timestamp;P1;durP1;ratioP1;P2;durP2;ratioP2
6255;SDS011;3161;48.794;9.784;2023-07-30T00:01:13;2.50;;;1.00;;
6255;SDS011;3161;48.794;9.784;2023-07-30T00:03:40;2.97;;;0.87;;
6255;SDS011;3161;48.794;9.784;2023-07-30T00:06:08;2.50;;;0.77;;
6255;SDS011;3161;48.794;9.784;2023-07-30T00:08:35;7.97;;;0.80;;
6255;SDS011;3161;48.794;9.784;2023-07-30T00:11:03;2.57;;;0.70;;
6255;SDS011;3161;48.794;9.784;2023-07-30T00:13:30;2.23;;;1.20;;
6255;SDS011;3161;48.794;9.784;2023-07-30T00:15:58;4.13;;;0.90;;
6255;SDS011;3161;48.794;9.784;2023-07-30T00:18:25;0.77;;;0.60;;
6255;SDS011;3161;48.794;9.784;2023-07-30T00:20:53;5.27;;;0.70;;
6255;SDS011;3161;48.794;9.784;2023-07-30T00:23:20;2.13;;;0.67;;
6255;SDS011;3161;48.794;9.784;2023-07-30T00:25:48;3.10;;;0.70;;
6255;SDS011;3161;48.794;9.784;2023-07-30T00:28:15;1.33;;;0.60;;
6255;SDS011;3161;48.794;9.784;2023-07-30T00:30:43;2.63;;;0.50;;
6255;SDS011;3161;48.794;9.784;2023-07-30T00:33:10;0.93;;;0.73;;
6255;SDS011;3161;48.794;9.784;2023-07-30T00:35:38;1.10;;;0.70;;
6255;SDS011;3161;48.794;9.784;2023-07-30T00:38:05;4.30;;;0.90;;
6255;SDS011;3161;48.794;9.784;2023-07-30T00:40:33;3.23;;;0.70;;
6255;SDS011;3161;48.794;9.784;2023-07-30T00:43:08;2.53;;;0.93;;
6255;SDS011;3161;48.794;9.784;2023-07-30T00:45:36;4.33;;;0.90;;
6255;SDS011;3161;48.794;9.784;2023-07-30T00:48:05;4.03;;;1.07;;
6255;SDS011;3161;48.794;9.784;2023-07-30T00:50:32;3.33;;;0.70;;
6255;SDS011;3161;48.794;9.784;2023-07-30T00:53:00;0.93;;;0.83;;
6255;SDS011;3161;48.794;9.784;2023-07-30T00:55:28;4.93;;;0.80;;
6255;SDS011;3161;48.794;9.784;2023-07-30T00:57:56;5.03;;;0.93;;
6255;SDS011;3161;48.794;9.784;2023-07-30T01:00:25;3.70;;;0.80;;
6255;SDS011;3161;48.794;9.784;2023-07-30T01:02:52;1.10;;;0.77;;
6255;SDS011;3161;48.794;9.784;2023-07-30T01:05:20;2.87;;;1.00;;
6255;SDS011;3161;48.794;9.784;2023-07-30T01:07:48;2.27;;;0.50;;
6255;SDS011;3161;48.794;9.784;2023-07-30T01:10:15;1.90;;;0.50;;
6255;SDS011;3161;48.794;9.784;2023-07-30T01:12:43;1.00;;;0.80;;
6255;SDS011;3161;48.794;9.784;2023-07-30T01:15:12;3.20;;;0.97;;
6255;SDS011;3161;48.794;9.784;2023-07-30T01:17:39;0.60;;;0.50;;
6255;SDS011;3161;48.794;9.784;2023-07-30T01:20:07;0.33;;;0.33;;
6255;SDS011;3161;48.794;9.784;2023-07-30T01:22:37;2.20;;;0.63;;
6255;SDS011;3161;48.794;9.784;2023-07-30T01:25:04;6.90;;;0.83;;
6255;SDS011;3161;48.794;9.784;2023-07-30T01:27:33;2.57;;;0.73;;
6255;SDS011;3161;48.794;9.784;2023-07-30T01:32:50;4.53;;;0.87;;
6255;SDS011;3161;48.794;9.784;2023-07-30T01:35:25;2.47;;;0.70;;
6255;SDS011;3161;48.794;9.784;2023-07-30T01:37:50;2.57;;;0.80;;
6255;SDS011;3161;48.794;9.784;2023-07-30T01:40:18;1.37;;;0.63;;
6255;SDS011;3161;48.794;9.784;2023-07-30T01:42:46;1.83;;;0.67;;
6255;SDS011;3161;48.794;9.784;2023-07-30T01:45:36;2.93;;;0.80;;
6255;SDS011;3161;48.794;9.784;2023-07-30T01:48:04;0.50;;;0.50;;
6255;SDS011;3161;48.794;9.784;2023-07-30T01:50:32;1.57;;;0.50;;
6255;SDS011;3161;48.794;9.784;2023-07-30T01:52:59;3.80;;;1.10;;
6255;SDS011;3161;48.794;9.784;2023-07-30T01:55:27;3.53;;;0.80;;
6255;SDS011;3161;48.794;9.784;2023-07-30T01:57:54;0.60;;;0.60;;
6255;SDS011;3161;48.794;9.784;2023-07-30T02:00:22;1.73;;;0.87;;
6255;SDS011;3161;48.794;9.784;2023-07-30T02:02:49;1.30;;;0.70;;
6255;SDS011;3161;48.794;9.784;2023-07-30T02:05:17;1.20;;;0.80;;
6255;SDS011;3161;48.794;9.784;2023-07-30T02:07:44;5.43;;;0.90;;
6255;SDS011;3161;48.794;9.784;2023-07-30T02:10:13;1.83;;;0.70;;
6255;SDS011;3161;48.794;9.784;2023-07-30T02:12:40;7.23;;;0.87;;
6255;SDS011;3161;48.794;9.784;2023-07-30T02:15:08;9.90;;;0.80;;
6255;SDS011;3161;48.794;9.784;2023-07-30T02:17:35;1.67;;;0.60;;
6255;SDS011;3161;48.794;9.784;2023-07-30T02:20:03;2.83;;;1.30;;
6255;SDS011;3161;48.794;9.784;2023-07-30T02:22:32;3.30;;;0.60;;
6255;SDS011;3161;48.794;9.784;2023-07-30T02:24:59;3.00;;;1.00;;
6255;SDS011;3161;48.794;9.784;2023-07-30T02:27:27;1.33;;;0.93;;
6255;SDS011;3161;48.794;9.784;2023-07-30T02:29:54;2.50;;;0.60;;
6255;SDS011;3161;48.794;9.784;2023-07-30T02:32:22;1.60;;;0.90;;
6255;SDS011;3161;48.794;9.784;2023-07-30T02:34:49;5.10;;;1.20;;
6255;SDS011;3161;48.794;9.784;2023-07-30T02:37:17;2.43;;;0.70;;
6255;SDS011;3161;48.794;9.784;2023-07-30T02:39:44;2.00;;;0.90;;
6255;SDS011;3161;48.794;9.784;2023-07-30T02:42:12;1.07;;;0.90;;
6255;SDS011;3161;48.794;9.784;2023-07-30T02:44:39;2.57;;;1.20;;
6255;SDS011;3161;48.794;9.784;2023-07-30T02:47:07;2.00;;;0.87;;
6255;SDS011;3161;48.794;9.784;2023-07-30T02:49:34;6.93;;;0.87;;
6255;SDS011;3161;48.794;9.784;2023-07-30T02:52:02;1.47;;;0.80;;
6255;SDS011;3161;48.794;9.784;2023-07-30T02:54:30;4.03;;;1.00;;
6255;SDS011;3161;48.794;9.784;2023-07-30T02:56:57;2.20;;;0.80;;
6255;SDS011;3161;48.794;9.784;2023-07-30T02:59:25;2.33;;;1.00;;
6255;SDS011;3161;48.794;9.784;2023-07-30T03:01:54;1.00;;;0.90;;
6255;SDS011;3161;48.794;9.784;2023-07-30T03:04:21;1.20;;;0.90;;
6255;SDS011;3161;48.794;9.784;2023-07-30T03:06:49;1.37;;;0.90;;
6255;SDS011;3161;48.794;9.784;2023-07-30T03:09:17;2.77;;;1.00;;
6255;SDS011;3161;48.794;9.784;2023-07-30T03:11:44;4.23;;;1.00;;
6255;SDS011;3161;48.794;9.784;2023-07-30T03:14:12;1.17;;;0.70;;
6255;SDS011;3161;48.794;9.784;2023-07-30T03:16:39;2.10;;;0.80;;
6255;SDS011;3161;48.794;9.784;2023-07-30T03:19:07;0.70;;;0.60;;
6255;SDS011;3161;48.794;9.784;2023-07-30T03:21:34;0.80;;;0.63;;
6255;SDS011;3161;48.794;9.784;2023-07-30T03:24:02;3.67;;;1.07;;
6255;SDS011;3161;48.794;9.784;2023-07-30T03:26:29;3.33;;;0.70;;
6255;SDS011;3161;48.794;9.784;2023-07-30T03:28:57;4.57;;;1.10;;
6255;SDS011;3161;48.794;9.784;2023-07-30T03:31:25;5.67;;;1.10;;
6255;SDS011;3161;48.794;9.784;2023-07-30T03:33:54;3.80;;;1.00;;
6255;SDS011;3161;48.794;9.784;2023-07-30T03:36:21;4.37;;;1.10;;
6255;SDS011;3161;48.794;9.784;2023-07-30T03:38:49;1.93;;;1.27;;
6255;SDS011;3161;48.794;9.784;2023-07-30T03:41:16;1.43;;;1.13;;
6255;SDS011;3161;48.794;9.784;2023-07-30T03:43:44;3.13;;;1.27;;
6255;SDS011;3161;48.794;9.784;2023-07-30T03:46:12;4.53;;;1.03;;
6255;SDS011;3161;48.794;9.784;2023-07-30T03:48:39;3.07;;;1.10;;
6255;SDS011;3161;48.794;9.784;2023-07-30T03:51:07;1.23;;;1.00;;
6255;SDS011;3161;48.794;9.784;2023-07-30T03:53:35;10.07;;;1.17;;
6255;SDS011;3161;48.794;9.784;2023-07-30T03:56:02;4.00;;;1.10;;
6255;SDS011;3161;48.794;9.784;2023-07-30T03:58:30;3.90;;;1.00;;
6255;SDS011;3161;48.794;9.784;2023-07-30T04:00:57;2.60;;;1.10;;
6255;SDS011;3161;48.794;9.784;2023-07-30T04:03:25;2.83;;;1.40;;
6255;SDS011;3161;48.794;9.784;2023-07-30T04:05:52;2.77;;;1.40;;
6255;SDS011;3161;48.794;9.784;2023-07-30T04:08:20;2.03;;;0.93;;
6255;SDS011;3161;48.794;9.784;2023-07-30T04:10:47;2.63;;;0.80;;
6255;SDS011;3161;48.794;9.784;2023-07-30T04:13:15;4.17;;;1.00;;
6255;SDS011;3161;48.794;9.784;2023-07-30T04:15:42;2.70;;;1.30;;
6255;SDS011;3161;48.794;9.784;2023-07-30T04:18:10;1.37;;;1.13;;
6255;SDS011;3161;48.794;9.784;2023-07-30T04:20:38;2.20;;;1.07;;
6255;SDS011;3161;48.794;9.784;2023-07-30T04:23:05;2.33;;;1.13;;
6255;SDS011;3161;48.794;9.784;2023-07-30T04:25:32;1.90;;;1.20;;
6255;SDS011;3161;48.794;9.784;2023-07-30T04:28:00;3.60;;;1.20;;
6255;SDS011;3161;48.794;9.784;2023-07-30T04:30:27;2.37;;;1.37;;
6255;SDS011;3161;48.794;9.784;2023-07-30T04:32:55;2.87;;;1.37;;
6255;SDS011;3161;48.794;9.784;2023-07-30T04:35:22;1.60;;;1.00;;
6255;SDS011;3161;48.794;9.784;2023-07-30T04:37:50;3.33;;;1.17;;
6255;SDS011;3161;48.794;9.784;2023-07-30T04:40:18;3.67;;;1.30;;
6255;SDS011;3161;48.794;9.784;2023-07-30T04:42:45;1.20;;;1.00;;
6255;SDS011;3161;48.794;9.784;2023-07-30T04:45:13;3.23;;;1.43;;
6255;SDS011;3161;48.794;9.784;2023-07-30T04:47:40;5.30;;;1.40;;
6255;SDS011;3161;48.794;9.784;2023-07-30T04:50:08;3.67;;;1.63;;
6255;SDS011;3161;48.794;9.784;2023-07-30T04:52:35;2.93;;;1.83;;
6255;SDS011;3161;48.794;9.784;2023-07-30T04:55:05;5.30;;;1.90;;
6255;SDS011;3161;48.794;9.784;2023-07-30T04:57:33;2.60;;;1.87;;
6255;SDS011;3161;48.794;9.784;2023-07-30T05:00:01;5.50;;;2.10;;
6255;SDS011;3161;48.794;9.784;2023-07-30T05:02:29;3.23;;;2.13;;
6255;SDS011;3161;48.794;9.784;2023-07-30T05:04:56;2.53;;;2.33;;
6255;SDS011;3161;48.794;9.784;2023-07-30T05:07:24;1.90;;;1.77;;
6255;SDS011;3161;48.794;9.784;2023-07-30T05:09:51;2.80;;;2.07;;
6255;SDS011;3161;48.794;9.784;2023-07-30T05:12:19;5.53;;;2.03;;
6255;SDS011;3161;48.794;9.784;2023-07-30T05:14:46;6.40;;;2.27;;
6255;SDS011;3161;48.794;9.784;2023-07-30T05:17:14;6.20;;;2.30;;
6255;SDS011;3161;48.794;9.784;2023-07-30T05:19:42;2.93;;;2.10;;
6255;SDS011;3161;48.794;9.784;2023-07-30T05:22:09;2.33;;;2.03;;
6255;SDS011;3161;48.794;9.784;2023-07-30T05:24:36;6.23;;;2.47;;
6255;SDS011;3161;48.794;9.784;2023-07-30T05:27:04;2.10;;;1.90;;
6255;SDS011;3161;48.794;9.784;2023-07-30T05:29:32;2.20;;;1.87;;
6255;SDS011;3161;48.794;9.784;2023-07-30T05:32:00;3.43;;;2.70;;
6255;SDS011;3161;48.794;9.784;2023-07-30T05:34:27;5.17;;;2.20;;
6255;SDS011;3161;48.794;9.784;2023-07-30T05:36:55;4.40;;;2.60;;
6255;SDS011;3161;48.794;9.784;2023-07-30T05:39:22;3.73;;;2.60;;
6255;SDS011;3161;48.794;9.784;2023-07-30T05:41:50;4.87;;;2.70;;
6255;SDS011;3161;48.794;9.784;2023-07-30T05:44:17;3.20;;;2.80;;
6255;SDS011;3161;48.794;9.784;2023-07-30T05:46:45;3.47;;;2.30;;
6255;SDS011;3161;48.794;9.784;2023-07-30T05:49:12;5.07;;;2.77;;
6255;SDS011;3161;48.794;9.784;2023-07-30T05:51:40;2.93;;;2.53;;
6255;SDS011;3161;48.794;9.784;2023-07-30T05:54:08;3.67;;;3.37;;
6255;SDS011;3161;48.794;9.784;2023-07-30T05:56:35;3.83;;;2.97;;
6255;SDS011;3161;48.794;9.784;2023-07-30T05:59:03;3.50;;;3.20;;
6255;SDS011;3161;48.794;9.784;2023-07-30T06:01:30;4.57;;;4.17;;
6255;SDS011;3161;48.794;9.784;2023-07-30T06:03:58;9.50;;;3.70;;
6255;SDS011;3161;48.794;9.784;2023-07-30T06:06:25;4.07;;;3.10;;
6255;SDS011;3161;48.794;9.784;2023-07-30T06:08:53;6.40;;;3.63;;
6255;SDS011;3161;48.794;9.784;2023-07-30T06:11:21;4.13;;;3.23;;
6255;SDS011;3161;48.794;9.784;2023-07-30T06:13:49;7.77;;;4.13;;
6255;SDS011;3161;48.794;9.784;2023-07-30T06:16:17;8.17;;;3.30;;
6255;SDS011;3161;48.794;9.784;2023-07-30T06:18:46;6.67;;;2.97;;
6255;SDS011;3161;48.794;9.784;2023-07-30T06:21:14;3.57;;;3.27;;
6255;SDS011;3161;48.794;9.784;2023-07-30T06:23:41;3.33;;;3.03;;
6255;SDS011;3161;48.794;9.784;2023-07-30T06:26:09;4.40;;;3.17;;
6255;SDS011;3161;48.794;9.784;2023-07-30T06:28:37;3.17;;;2.97;;
6255;SDS011;3161;48.794;9.784;2023-07-30T06:31:04;4.23;;;3.70;;
6255;SDS011;3161;48.794;9.784;2023-07-30T06:33:32;5.67;;;3.60;;
6255;SDS011;3161;48.794;9.784;2023-07-30T06:35:59;3.87;;;3.30;;
6255;SDS011;3161;48.794;9.784;2023-07-30T06:38:27;5.50;;;3.40;;
6255;SDS011;3161;48.794;9.784;2023-07-30T06:40:54;6.67;;;3.67;;
6255;SDS011;3161;48.794;9.784;2023-07-30T06:43:23;2.70;;;2.50;;
6255;SDS011;3161;48.794;9.784;2023-07-30T06:45:51;3.20;;;2.90;;
6255;SDS011;3161;48.794;9.784;2023-07-30T06:48:20;4.20;;;3.70;;
6255;SDS011;3161;48.794;9.784;2023-07-30T06:50:48;4.17;;;3.57;;
6255;SDS011;3161;48.794;9.784;2023-07-30T06:53:15;4.40;;;4.00;;
6255;SDS011;3161;48.794;9.784;2023-07-30T06:55:43;3.23;;;2.97;;
6255;SDS011;3161;48.794;9.784;2023-07-30T06:58:11;3.40;;;3.10;;
6255;SDS011;3161;48.794;9.784;2023-07-30T07:00:40;3.00;;;2.40;;
6255;SDS011;3161;48.794;9.784;2023-07-30T07:03:07;6.03;;;3.37;;
6255;SDS011;3161;48.794;9.784;2023-07-30T07:05:37;2.73;;;2.53;;
6255;SDS011;3161;48.794;9.784;2023-07-30T07:08:05;4.43;;;3.23;;
6255;SDS011;3161;48.794;9.784;2023-07-30T07:10:33;3.63;;;2.33;;
6255;SDS011;3161;48.794;9.784;2023-07-30T07:13:01;5.27;;;2.40;;
6255;SDS011;3161;48.794;9.784;2023-07-30T07:15:28;3.40;;;2.70;;
6255;SDS011;3161;48.794;9.784;2023-07-30T07:17:56;6.17;;;2.10;;
6255;SDS011;3161;48.794;9.784;2023-07-30T07:20:23;2.00;;;1.80;;
6255;SDS011;3161;48.794;9.784;2023-07-30T07:22:51;2.67;;;2.17;;
6255;SDS011;3161;48.794;9.784;2023-07-30T07:25:18;2.83;;;1.90;;
6255;SDS011;3161;48.794;9.784;2023-07-30T07:27:46;2.30;;;2.00;;
6255;SDS011;3161;48.794;9.784;2023-07-30T07:30:14;1.77;;;1.67;;
6255;SDS011;3161;48.794;9.784;2023-07-30T07:32:41;1.80;;;1.70;;
6255;SDS011;3161;48.794;9.784;2023-07-30T07:35:09;2.63;;;1.73;;
6255;SDS011;3161;48.794;9.784;2023-07-30T07:37:37;4.83;;;1.80;;
6255;SDS011;3161;48.794;9.784;2023-07-30T07:40:05;1.83;;;1.73;;
6255;SDS011;3161;48.794;9.784;2023-07-30T07:42:35;4.50;;;1.53;;
6255;SDS011;3161;48.794;9.784;2023-07-30T07:45:05;2.90;;;1.67;;
6255;SDS011;3161;48.794;9.784;2023-07-30T07:47:33;1.63;;;1.53;;
6255;SDS011;3161;48.794;9.784;2023-07-30T07:50:01;1.30;;;1.30;;
6255;SDS011;3161;48.794;9.784;2023-07-30T07:52:28;1.87;;;1.77;;
6255;SDS011;3161;48.794;9.784;2023-07-30T07:54:56;1.27;;;1.27;;
6255;SDS011;3161;48.794;9.784;2023-07-30T07:57:23;2.47;;;2.07;;
6255;SDS011;3161;48.794;9.784;2023-07-30T07:59:51;2.70;;;2.20;;
6255;SDS011;3161;48.794;9.784;2023-07-30T08:02:18;4.33;;;1.70;;
6255;SDS011;3161;48.794;9.784;2023-07-30T08:04:46;3.73;;;1.93;;
6255;SDS011;3161;48.794;9.784;2023-07-30T08:07:14;2.30;;;1.93;;
6255;SDS011;3161;48.794;9.784;2023-07-30T08:09:41;2.03;;;1.60;;
6255;SDS011;3161;48.794;9.784;2023-07-30T08:12:09;1.40;;;1.30;;
6255;SDS011;3161;48.794;9.784;2023-07-30T08:14:38;1.40;;;1.30;;
6255;SDS011;3161;48.794;9.784;2023-07-30T08:17:06;2.00;;;1.60;;
6255;SDS011;3161;48.794;9.784;2023-07-30T08:19:33;4.90;;;1.73;;
6255;SDS011;3161;48.794;9.784;2023-07-30T08:22:01;1.00;;;1.00;;
6255;SDS011;3161;48.794;9.784;2023-07-30T08:24:29;1.03;;;1.00;;
6255;SDS011;3161;48.794;9.784;2023-07-30T08:26:56;3.07;;;1.83;;
6255;SDS011;3161;48.794;9.784;2023-07-30T08:29:24;3.10;;;1.47;;
6255;SDS011;3161;48.794;9.784;2023-07-30T08:31:51;2.03;;;1.50;;
6255;SDS011;3161;48.794;9.784;2023-07-30T08:34:21;4.13;;;1.43;;
6255;SDS011;3161;48.794;9.784;2023-07-30T08:36:49;2.50;;;1.13;;
6255;SDS011;3161;48.794;9.784;2023-07-30T08:39:17;1.30;;;1.20;;
6255;SDS011;3161;48.794;9.784;2023-07-30T08:41:45;4.30;;;1.23;;
6255;SDS011;3161;48.794;9.784;2023-07-30T08:44:12;1.63;;;1.10;;
6255;SDS011;3161;48.794;9.784;2023-07-30T08:46:40;1.80;;;1.20;;
6255;SDS011;3161;48.794;9.784;2023-07-30T08:49:08;3.73;;;1.10;;
6255;SDS011;3161;48.794;9.784;2023-07-30T08:51:36;2.13;;;0.80;;
6255;SDS011;3161;48.794;9.784;2023-07-30T08:54:05;1.47;;;1.07;;
6255;SDS011;3161;48.794;9.784;2023-07-30T08:56:35;5.13;;;1.47;;
6255;SDS011;3161;48.794;9.784;2023-07-30T08:59:02;3.80;;;1.27;;
6255;SDS011;3161;48.794;9.784;2023-07-30T09:01:34;2.40;;;1.10;;
6255;SDS011;3161;48.794;9.784;2023-07-30T09:04:02;0.90;;;0.90;;
6255;SDS011;3161;48.794;9.784;2023-07-30T09:06:30;1.33;;;1.03;;
6255;SDS011;3161;48.794;9.784;2023-07-30T09:08:59;0.93;;;0.93;;
6255;SDS011;3161;48.794;9.784;2023-07-30T09:11:28;1.10;;;1.00;;
6255;SDS011;3161;48.794;9.784;2023-07-30T09:13:56;2.97;;;1.30;;
6255;SDS011;3161;48.794;9.784;2023-07-30T09:16:25;2.50;;;1.07;;
6255;SDS011;3161;48.794;9.784;2023-07-30T09:18:53;1.17;;;1.00;;
6255;SDS011;3161;48.794;9.784;2023-07-30T09:21:29;1.73;;;0.90;;
6255;SDS011;3161;48.794;9.784;2023-07-30T09:23:56;1.00;;;0.90;;
6255;SDS011;3161;48.794;9.784;2023-07-30T09:26:25;1.53;;;1.17;;
6255;SDS011;3161;48.794;9.784;2023-07-30T09:28:55;1.30;;;1.20;;
6255;SDS011;3161;48.794;9.784;2023-07-30T09:31:22;1.40;;;1.30;;
6255;SDS011;3161;48.794;9.784;2023-07-30T09:33:50;1.13;;;1.13;;
6255;SDS011;3161;48.794;9.784;2023-07-30T09:36:19;1.23;;;1.10;;
6255;SDS011;3161;48.794;9.784;2023-07-30T09:38:47;1.30;;;1.20;;
6255;SDS011;3161;48.794;9.784;2023-07-30T09:41:15;1.20;;;1.20;;
6255;SDS011;3161;48.794;9.784;2023-07-30T09:43:43;5.13;;;1.00;;
6255;SDS011;3161;48.794;9.784;2023-07-30T09:46:11;2.00;;;1.27;;
6255;SDS011;3161;48.794;9.784;2023-07-30T09:48:38;3.73;;;0.90;;
6255;SDS011;3161;48.794;9.784;2023-07-30T09:51:06;2.33;;;1.27;;
6255;SDS011;3161;48.794;9.784;2023-07-30T09:53:35;1.80;;;0.90;;
6255;SDS011;3161;48.794;9.784;2023-07-30T09:56:02;1.37;;;1.17;;
6255;SDS011;3161;48.794;9.784;2023-07-30T09:58:32;2.47;;;1.37;;
6255;SDS011;3161;48.794;9.784;2023-07-30T10:01:02;1.10;;;1.00;;
6255;SDS011;3161;48.794;9.784;2023-07-30T10:03:31;1.10;;;1.00;;
6255;SDS011;3161;48.794;9.784;2023-07-30T10:06:02;2.80;;;1.50;;
6255;SDS011;3161;48.794;9.784;2023-07-30T10:08:31;2.00;;;1.13;;
6255;SDS011;3161;48.794;9.784;2023-07-30T10:11:00;1.47;;;1.37;;
6255;SDS011;3161;48.794;9.784;2023-07-30T10:13:32;1.47;;;1.17;;
6255;SDS011;3161;48.794;9.784;2023-07-30T10:16:00;1.10;;;1.10;;
6255;SDS011;3161;48.794;9.784;2023-07-30T10:18:41;1.40;;;1.30;;
6255;SDS011;3161;48.794;9.784;2023-07-30T10:21:10;3.40;;;1.10;;
6255;SDS011;3161;48.794;9.784;2023-07-30T10:23:46;1.90;;;1.50;;
6255;SDS011;3161;48.794;9.784;2023-07-30T10:26:32;2.30;;;1.40;;
6255;SDS011;3161;48.794;9.784;2023-07-30T10:29:15;2.27;;;1.20;;
6255;SDS011;3161;48.794;9.784;2023-07-30T10:34:21;1.63;;;1.17;;
6255;SDS011;3161;48.794;9.784;2023-07-30T10:36:51;2.13;;;1.47;;
6255;SDS011;3161;48.794;9.784;2023-07-30T10:39:19;1.27;;;1.20;;
6255;SDS011;3161;48.794;9.784;2023-07-30T10:41:52;3.10;;;1.37;;
6255;SDS011;3161;48.794;9.784;2023-07-30T10:44:25;1.27;;;1.00;;
6255;SDS011;3161;48.794;9.784;2023-07-30T10:46:55;1.50;;;1.40;;
6255;SDS011;3161;48.794;9.784;2023-07-30T10:49:23;1.63;;;1.53;;
6255;SDS011;3161;48.794;9.784;2023-07-30T10:51:55;4.00;;;1.40;;
6255;SDS011;3161;48.794;9.784;2023-07-30T10:54:23;2.07;;;1.40;;
6255;SDS011;3161;48.794;9.784;2023-07-30T10:56:51;1.70;;;1.60;;
6255;SDS011;3161;48.794;9.784;2023-07-30T10:59:20;3.67;;;1.40;;
6255;SDS011;3161;48.794;9.784;2023-07-30T11:01:48;1.10;;;1.00;;
6255;SDS011;3161;48.794;9.784;2023-07-30T11:04:20;3.33;;;1.40;;
6255;SDS011;3161;48.794;9.784;2023-07-30T11:06:46;2.63;;;1.63;;
6255;SDS011;3161;48.794;9.784;2023-07-30T11:09:19;2.07;;;1.50;;
6255;SDS011;3161;48.794;9.784;2023-07-30T11:11:51;1.77;;;1.23;;
6255;SDS011;3161;48.794;9.784;2023-07-30T11:14:25;1.50;;;1.20;;
6255;SDS011;3161;48.794;9.784;2023-07-30T11:16:52;1.47;;;1.37;;
6255;SDS011;3161;48.794;9.784;2023-07-30T11:19:24;1.83;;;1.30;;
6255;SDS011;3161;48.794;9.784;2023-07-30T11:21:54;4.67;;;1.00;;
6255;SDS011;3161;48.794;9.784;2023-07-30T11:24:45;5.33;;;1.30;;
6255;SDS011;3161;48.794;9.784;2023-07-30T11:27:04;2.70;;;1.73;;
6255;SDS011;3161;48.794;9.784;2023-07-30T11:29:32;3.70;;;1.70;;
6255;SDS011;3161;48.794;9.784;2023-07-30T11:32:00;3.20;;;1.27;;
6255;SDS011;3161;48.794;9.784;2023-07-30T11:34:28;2.30;;;1.37;;
6255;SDS011;3161;48.794;9.784;2023-07-30T11:36:57;1.35;;;1.25;;
6255;SDS011;3161;48.794;9.784;2023-07-30T11:39:25;2.07;;;1.33;;
6255;SDS011;3161;48.794;9.784;2023-07-30T11:41:54;1.40;;;1.30;;
6255;SDS011;3161;48.794;9.784;2023-07-30T11:44:31;4.93;;;1.20;;
6255;SDS011;3161;48.794;9.784;2023-07-30T11:47:06;3.87;;;1.50;;
6255;SDS011;3161;48.794;9.784;2023-07-30T11:49:35;1.32;;;1.22;;
6255;SDS011;3161;48.794;9.784;2023-07-30T11:54:35;2.23;;;1.40;;
6255;SDS011;3161;48.794;9.784;2023-07-30T11:57:03;1.50;;;1.40;;
6255;SDS011;3161;48.794;9.784;2023-07-30T11:59:31;2.43;;;1.53;;
6255;SDS011;3161;48.794;9.784;2023-07-30T12:01:59;1.30;;;1.20;;
6255;SDS011;3161;48.794;9.784;2023-07-30T12:04:30;1.40;;;1.30;;
6255;SDS011;3161;48.794;9.784;2023-07-30T12:07:00;2.73;;;1.50;;
6255;SDS011;3161;48.794;9.784;2023-07-30T12:09:34;1.80;;;1.37;;
6255;SDS011;3161;48.794;9.784;2023-07-30T12:12:02;2.17;;;1.90;;
6255;SDS011;3161;48.794;9.784;2023-07-30T12:17:19;2.27;;;1.40;;
6255;SDS011;3161;48.794;9.784;2023-07-30T12:19:48;3.00;;;1.57;;
6255;SDS011;3161;48.794;9.784;2023-07-30T12:22:15;2.30;;;1.10;;
6255;SDS011;3161;48.794;9.784;2023-07-30T12:24:43;1.47;;;1.20;;
6255;SDS011;3161;48.794;9.784;2023-07-30T12:27:10;3.40;;;1.20;;
6255;SDS011;3161;48.794;9.784;2023-07-30T12:29:38;1.97;;;1.40;;
6255;SDS011;3161;48.794;9.784;2023-07-30T12:32:06;1.30;;;1.20;;
6255;SDS011;3161;48.794;9.784;2023-07-30T12:34:33;1.10;;;1.00;;
6255;SDS011;3161;48.794;9.784;2023-07-30T12:37:01;1.70;;;1.10;;
6255;SDS011;3161;48.794;9.784;2023-07-30T12:39:29;3.52;;;0.90;;
6255;SDS011;3161;48.794;9.784;2023-07-30T12:41:56;1.27;;;1.07;;
6255;SDS011;3161;48.794;9.784;2023-07-30T12:44:24;3.55;;;1.57;;
6255;SDS011;3161;48.794;9.784;2023-07-30T12:46:51;4.80;;;1.15;;
6255;SDS011;3161;48.794;9.784;2023-07-30T12:49:19;2.55;;;0.93;;
6255;SDS011;3161;48.794;9.784;2023-07-30T12:51:46;2.15;;;0.98;;
6255;SDS011;3161;48.794;9.784;2023-07-30T12:54:14;2.15;;;1.12;;
6255;SDS011;3161;48.794;9.784;2023-07-30T12:56:42;1.20;;;1.10;;
6255;SDS011;3161;48.794;9.784;2023-07-30T12:59:10;2.10;;;1.10;;
6255;SDS011;3161;48.794;9.784;2023-07-30T13:01:37;2.90;;;1.02;;
6255;SDS011;3161;48.794;9.784;2023-07-30T13:04:05;1.42;;;1.10;;
6255;SDS011;3161;48.794;9.784;2023-07-30T13:06:32;1.82;;;1.15;;
6255;SDS011;3161;48.794;9.784;2023-07-30T13:09:00;2.75;;;1.32;;
6255;SDS011;3161;48.794;9.784;2023-07-30T13:11:27;1.60;;;0.93;;
6255;SDS011;3161;48.794;9.784;2023-07-30T13:13:55;3.33;;;1.02;;
6255;SDS011;3161;48.794;9.784;2023-07-30T13:16:22;2.75;;;1.10;;
6255;SDS011;3161;48.794;9.784;2023-07-30T13:18:50;5.08;;;1.30;;
6255;SDS011;3161;48.794;9.784;2023-07-30T13:21:18;3.42;;;1.20;;
6255;SDS011;3161;48.794;9.784;2023-07-30T13:23:47;1.70;;;1.20;;
6255;SDS011;3161;48.794;9.784;2023-07-30T13:26:14;1.67;;;1.27;;
6255;SDS011;3161;48.794;9.784;2023-07-30T13:28:42;3.27;;;1.30;;
6255;SDS011;3161;48.794;9.784;2023-07-30T13:31:10;1.42;;;1.00;;
6255;SDS011;3161;48.794;9.784;2023-07-30T13:33:38;2.92;;;1.00;;
6255;SDS011;3161;48.794;9.784;2023-07-30T13:36:05;1.65;;;1.30;;
6255;SDS011;3161;48.794;9.784;2023-07-30T13:38:34;1.90;;;0.95;;
6255;SDS011;3161;48.794;9.784;2023-07-30T13:41:01;2.92;;;1.50;;
6255;SDS011;3161;48.794;9.784;2023-07-30T13:43:29;2.60;;;1.00;;
6255;SDS011;3161;48.794;9.784;2023-07-30T13:45:56;1.70;;;1.32;;
6255;SDS011;3161;48.794;9.784;2023-07-30T13:48:24;1.02;;;0.93;;
6255;SDS011;3161;48.794;9.784;2023-07-30T13:50:52;2.17;;;1.10;;
6255;SDS011;3161;48.794;9.784;2023-07-30T13:53:20;1.37;;;0.90;;
6255;SDS011;3161;48.794;9.784;2023-07-30T13:55:47;3.40;;;0.80;;
6255;SDS011;3161;48.794;9.784;2023-07-30T13:58:15;2.25;;;1.10;;
6255;SDS011;3161;48.794;9.784;2023-07-30T14:00:42;1.22;;;1.10;;
6255;SDS011;3161;48.794;9.784;2023-07-30T14:03:10;5.03;;;0.80;;
6255;SDS011;3161;48.794;9.784;2023-07-30T14:05:39;1.62;;;1.02;;
6255;SDS011;3161;48.794;9.784;2023-07-30T14:08:06;2.75;;;1.37;;
6255;SDS011;3161;48.794;9.784;2023-07-30T14:10:34;5.65;;;1.10;;
6255;SDS011;3161;48.794;9.784;2023-07-30T14:13:01;14.60;;;1.10;;
6255;SDS011;3161;48.794;9.784;2023-07-30T14:15:29;4.30;;;1.10;;
6255;SDS011;3161;48.794;9.784;2023-07-30T14:17:58;2.10;;;1.25;;
6255;SDS011;3161;48.794;9.784;2023-07-30T14:20:26;1.05;;;0.95;;
6255;SDS011;3161;48.794;9.784;2023-07-30T14:22:53;2.80;;;0.90;;
6255;SDS011;3161;48.794;9.784;2023-07-30T14:25:21;1.57;;;0.72;;
6255;SDS011;3161;48.794;9.784;2023-07-30T14:27:48;1.10;;;1.00;;
6255;SDS011;3161;48.794;9.784;2023-07-30T14:30:16;1.50;;;0.95;;
6255;SDS011;3161;48.794;9.784;2023-07-30T14:32:43;1.25;;;0.80;;
6255;SDS011;3161;48.794;9.784;2023-07-30T14:35:11;5.67;;;1.00;;
6255;SDS011;3161;48.794;9.784;2023-07-30T14:37:38;2.08;;;1.00;;
6255;SDS011;3161;48.794;9.784;2023-07-30T14:40:06;1.45;;;1.00;;
6255;SDS011;3161;48.794;9.784;2023-07-30T14:42:34;1.30;;;0.88;;
6255;SDS011;3161;48.794;9.784;2023-07-30T14:45:02;2.17;;;1.02;;
6255;SDS011;3161;48.794;9.784;2023-07-30T14:47:30;2.27;;;0.90;;
6255;SDS011;3161;48.794;9.784;2023-07-30T14:49:58;4.28;;;1.30;;
6255;SDS011;3161;48.794;9.784;2023-07-30T14:52:27;2.58;;;1.35;;
6255;SDS011;3161;48.794;9.784;2023-07-30T14:54:54;3.05;;;0.90;;
6255;SDS011;3161;48.794;9.784;2023-07-30T14:57:22;1.10;;;0.78;;
6255;SDS011;3161;48.794;9.784;2023-07-30T14:59:50;2.02;;;1.02;;
6255;SDS011;3161;48.794;9.784;2023-07-30T15:02:18;1.30;;;1.10;;
6255;SDS011;3161;48.794;9.784;2023-07-30T15:04:46;2.47;;;1.10;;
6255;SDS011;3161;48.794;9.784;2023-07-30T15:07:13;4.47;;;1.92;;
6255;SDS011;3161;48.794;9.784;2023-07-30T15:09:41;5.42;;;2.98;;
6255;SDS011;3161;48.794;9.784;2023-07-30T15:12:09;18.20;;;10.23;;
6255;SDS011;3161;48.794;9.784;2023-07-30T15:14:37;9.75;;;3.47;;
6255;SDS011;3161;48.794;9.784;2023-07-30T15:17:04;2.00;;;1.07;;
6255;SDS011;3161;48.794;9.784;2023-07-30T15:19:32;2.40;;;1.77;;
6255;SDS011;3161;48.794;9.784;2023-07-30T15:21:59;9.58;;;5.70;;
6255;SDS011;3161;48.794;9.784;2023-07-30T15:24:27;2.90;;;1.47;;
6255;SDS011;3161;48.794;9.784;2023-07-30T15:26:54;4.20;;;0.98;;
6255;SDS011;3161;48.794;9.784;2023-07-30T15:29:22;1.37;;;0.78;;
6255;SDS011;3161;48.794;9.784;2023-07-30T15:31:50;2.30;;;1.07;;